sensor_id;sensor_type;location;lat;lon;timestamp;P1;durP1;ratioP1;P2;durP2;ratioP2
47882;SDS011;37739;50.350;7.578;2023-06-22T00:01:45;6.50;;;6.00;;
47882;SDS011;37739;50.350;7.578;2023-06-22T00:04:17;5.87;;;5.47;;
47882;SDS011;37739;50.350;7.578;2023-06-22T00:06:45;6.37;;;5.83;;
47882;SDS011;37739;50.350;7.578;2023-06-22T00:12:24;5.50;;;5.10;;
47882;SDS011;37739;50.350;7.578;2023-06-22T00:14:49;6.37;;;5.83;;
47882;SDS011;37739;50.350;7.578;2023-06-22T00:17:15;6.23;;;5.83;;
47882;SDS011;37739;50.350;7.578;2023-06-22T00:19:47;7.53;;;6.93;;
47882;SDS011;37739;50.350;7.578;2023-06-22T00:22:18;6.73;;;6.23;;
47882;SDS011;37739;50.350;7.578;2023-06-22T00:24:46;7.30;;;6.80;;
47882;SDS011;37739;50.350;7.578;2023-06-22T00:27:11;7.67;;;7.07;;
47882;SDS011;37739;50.350;7.578;2023-06-22T00:29:40;6.03;;;5.63;;
47882;SDS011;37739;50.350;7.578;2023-06-22T00:32:07;6.53;;;6.03;;
47882;SDS011;37739;50.350;7.578;2023-06-22T00:34:33;5.93;;;5.53;;
47882;SDS011;37739;50.350;7.578;2023-06-22T00:37:00;6.07;;;5.67;;
47882;SDS011;37739;50.350;7.578;2023-06-22T00:39:25;6.17;;;5.60;;
47882;SDS011;37739;50.350;7.578;2023-06-22T00:41:51;6.20;;;5.70;;
47882;SDS011;37739;50.350;7.578;2023-06-22T00:44:16;6.63;;;5.57;;
47882;SDS011;37739;50.350;7.578;2023-06-22T00:46:41;5.10;;;4.70;;
47882;SDS011;37739;50.350;7.578;2023-06-22T00:49:22;5.77;;;5.37;;
47882;SDS011;37739;50.350;7.578;2023-06-22T00:51:54;5.70;;;5.20;;
47882;SDS011;37739;50.350;7.578;2023-06-22T00:54:19;5.00;;;4.70;;
47882;SDS011;37739;50.350;7.578;2023-06-22T00:56:55;6.00;;;5.50;;
47882;SDS011;37739;50.350;7.578;2023-06-22T00:59:35;6.07;;;5.67;;
47882;SDS011;37739;50.350;7.578;2023-06-22T01:02:01;5.97;;;5.57;;
47882;SDS011;37739;50.350;7.578;2023-06-22T01:04:39;6.83;;;6.33;;
47882;SDS011;37739;50.350;7.578;2023-06-22T01:12:52;6.97;;;6.30;;
47882;SDS011;37739;50.350;7.578;2023-06-22T01:15:35;7.70;;;7.10;;
47882;SDS011;37739;50.350;7.578;2023-06-22T01:18:22;7.70;;;7.13;;
47882;SDS011;37739;50.350;7.578;2023-06-22T01:21:01;7.47;;;6.70;;
47882;SDS011;37739;50.350;7.578;2023-06-22T01:23:36;6.70;;;6.20;;
47882;SDS011;37739;50.350;7.578;2023-06-22T01:29:11;5.93;;;5.53;;
47882;SDS011;37739;50.350;7.578;2023-06-22T01:31:44;6.60;;;6.00;;
47882;SDS011;37739;50.350;7.578;2023-06-22T01:34:14;6.50;;;6.00;;
47882;SDS011;37739;50.350;7.578;2023-06-22T01:36:56;6.87;;;6.37;;
47882;SDS011;37739;50.350;7.578;2023-06-22T01:39:24;6.57;;;6.07;;
47882;SDS011;37739;50.350;7.578;2023-06-22T01:41:52;6.60;;;6.10;;
47882;SDS011;37739;50.350;7.578;2023-06-22T01:44:26;6.07;;;5.57;;
47882;SDS011;37739;50.350;7.578;2023-06-22T01:46:53;6.40;;;5.90;;
47882;SDS011;37739;50.350;7.578;2023-06-22T01:49:25;6.50;;;5.90;;
47882;SDS011;37739;50.350;7.578;2023-06-22T01:51:53;6.57;;;6.07;;
47882;SDS011;37739;50.350;7.578;2023-06-22T01:54:41;6.10;;;5.70;;
47882;SDS011;37739;50.350;7.578;2023-06-22T01:57:06;6.47;;;6.00;;
47882;SDS011;37739;50.350;7.578;2023-06-22T01:59:35;6.93;;;6.43;;
47882;SDS011;37739;50.350;7.578;2023-06-22T02:02:21;6.50;;;5.90;;
47882;SDS011;37739;50.350;7.578;2023-06-22T02:05:16;6.00;;;5.50;;
47882;SDS011;37739;50.350;7.578;2023-06-22T02:07:48;6.07;;;5.60;;
47882;SDS011;37739;50.350;7.578;2023-06-22T02:10:25;5.97;;;5.57;;
47882;SDS011;37739;50.350;7.578;2023-06-22T02:13:06;6.50;;;5.90;;
47882;SDS011;37739;50.350;7.578;2023-06-22T02:15:41;5.87;;;5.37;;
47882;SDS011;37739;50.350;7.578;2023-06-22T02:18:09;6.83;;;6.23;;
47882;SDS011;37739;50.350;7.578;2023-06-22T02:20:45;6.53;;;6.03;;
47882;SDS011;37739;50.350;7.578;2023-06-22T02:26:18;5.63;;;5.20;;
47882;SDS011;37739;50.350;7.578;2023-06-22T02:28:44;6.60;;;6.10;;
47882;SDS011;37739;50.350;7.578;2023-06-22T02:31:10;6.23;;;5.80;;
47882;SDS011;37739;50.350;7.578;2023-06-22T02:33:48;6.80;;;6.20;;
47882;SDS011;37739;50.350;7.578;2023-06-22T02:36:33;6.53;;;6.03;;
47882;SDS011;37739;50.350;7.578;2023-06-22T02:38:58;6.97;;;6.47;;
47882;SDS011;37739;50.350;7.578;2023-06-22T02:41:26;7.60;;;7.00;;
47882;SDS011;37739;50.350;7.578;2023-06-22T02:43:56;6.80;;;6.20;;
47882;SDS011;37739;50.350;7.578;2023-06-22T02:46:35;7.43;;;6.83;;
47882;SDS011;37739;50.350;7.578;2023-06-22T02:49:06;8.70;;;6.20;;
47882;SDS011;37739;50.350;7.578;2023-06-22T02:51:38;6.17;;;5.67;;
47882;SDS011;37739;50.350;7.578;2023-06-22T02:54:10;6.47;;;5.50;;
47882;SDS011;37739;50.350;7.578;2023-06-22T02:56:38;6.63;;;6.13;;
47882;SDS011;37739;50.350;7.578;2023-06-22T02:59:11;6.50;;;6.10;;
47882;SDS011;37739;50.350;7.578;2023-06-22T03:01:43;7.67;;;7.07;;
47882;SDS011;37739;50.350;7.578;2023-06-22T03:04:09;6.13;;;5.67;;
47882;SDS011;37739;50.350;7.578;2023-06-22T03:06:46;7.10;;;6.50;;
47882;SDS011;37739;50.350;7.578;2023-06-22T03:09:18;7.20;;;6.50;;
47882;SDS011;37739;50.350;7.578;2023-06-22T03:11:50;7.17;;;6.57;;
47882;SDS011;37739;50.350;7.578;2023-06-22T03:14:29;7.40;;;6.90;;
47882;SDS011;37739;50.350;7.578;2023-06-22T03:16:54;6.90;;;6.30;;
47882;SDS011;37739;50.350;7.578;2023-06-22T03:19:19;7.00;;;6.50;;
47882;SDS011;37739;50.350;7.578;2023-06-22T03:22:01;7.23;;;6.63;;
47882;SDS011;37739;50.350;7.578;2023-06-22T03:24:50;6.40;;;5.90;;
47882;SDS011;37739;50.350;7.578;2023-06-22T03:27:21;6.50;;;6.10;;
47882;SDS011;37739;50.350;7.578;2023-06-22T03:29:56;7.63;;;6.50;;
47882;SDS011;37739;50.350;7.578;2023-06-22T03:32:38;7.07;;;6.57;;
47882;SDS011;37739;50.350;7.578;2023-06-22T03:35:22;6.70;;;6.20;;
47882;SDS011;37739;50.350;7.578;2023-06-22T03:37:56;6.57;;;6.07;;
47882;SDS011;37739;50.350;7.578;2023-06-22T03:40:27;7.00;;;6.40;;
47882;SDS011;37739;50.350;7.578;2023-06-22T03:43:01;7.30;;;6.80;;
47882;SDS011;37739;50.350;7.578;2023-06-22T03:45:32;7.40;;;6.80;;
47882;SDS011;37739;50.350;7.578;2023-06-22T03:48:11;6.70;;;6.20;;
47882;SDS011;37739;50.350;7.578;2023-06-22T03:50:39;6.90;;;6.30;;
47882;SDS011;37739;50.350;7.578;2023-06-22T03:53:10;7.20;;;6.60;;
47882;SDS011;37739;50.350;7.578;2023-06-22T03:55:40;6.90;;;6.30;;
47882;SDS011;37739;50.350;7.578;2023-06-22T03:58:21;7.10;;;6.50;;
47882;SDS011;37739;50.350;7.578;2023-06-22T04:00:47;7.30;;;6.80;;
47882;SDS011;37739;50.350;7.578;2023-06-22T04:03:14;6.53;;;6.03;;
47882;SDS011;37739;50.350;7.578;2023-06-22T04:05:42;6.67;;;6.17;;
47882;SDS011;37739;50.350;7.578;2023-06-22T04:08:27;6.37;;;5.87;;
47882;SDS011;37739;50.350;7.578;2023-06-22T04:10:55;7.13;;;6.63;;
47882;SDS011;37739;50.350;7.578;2023-06-22T04:13:32;6.63;;;6.13;;
47882;SDS011;37739;50.350;7.578;2023-06-22T04:16:00;7.30;;;6.80;;
47882;SDS011;37739;50.350;7.578;2023-06-22T04:18:41;7.80;;;7.20;;
47882;SDS011;37739;50.350;7.578;2023-06-22T04:21:17;7.63;;;7.07;;
47882;SDS011;37739;50.350;7.578;2023-06-22T04:23:50;7.90;;;7.30;;
47882;SDS011;37739;50.350;7.578;2023-06-22T04:26:27;7.60;;;7.00;;
47882;SDS011;37739;50.350;7.578;2023-06-22T04:29:12;8.20;;;7.60;;
47882;SDS011;37739;50.350;7.578;2023-06-22T04:32:09;7.87;;;7.17;;
47882;SDS011;37739;50.350;7.578;2023-06-22T04:34:46;8.17;;;7.47;;
47882;SDS011;37739;50.350;7.578;2023-06-22T04:37:18;7.80;;;7.20;;
47882;SDS011;37739;50.350;7.578;2023-06-22T04:39:43;7.00;;;6.50;;
47882;SDS011;37739;50.350;7.578;2023-06-22T04:42:12;8.17;;;7.57;;
47882;SDS011;37739;50.350;7.578;2023-06-22T04:44:39;8.40;;;7.70;;
47882;SDS011;37739;50.350;7.578;2023-06-22T04:47:07;7.63;;;7.13;;
47882;SDS011;37739;50.350;7.578;2023-06-22T04:49:41;8.03;;;7.43;;
47882;SDS011;37739;50.350;7.578;2023-06-22T04:52:17;7.40;;;6.90;;
47882;SDS011;37739;50.350;7.578;2023-06-22T04:54:48;7.17;;;6.67;;
47882;SDS011;37739;50.350;7.578;2023-06-22T04:57:39;7.80;;;7.20;;
47882;SDS011;37739;50.350;7.578;2023-06-22T05:00:04;8.17;;;7.43;;
47882;SDS011;37739;50.350;7.578;2023-06-22T05:03:00;7.90;;;7.30;;
47882;SDS011;37739;50.350;7.578;2023-06-22T05:05:28;8.27;;;7.67;;
47882;SDS011;37739;50.350;7.578;2023-06-22T05:07:56;7.57;;;6.97;;
47882;SDS011;37739;50.350;7.578;2023-06-22T05:10:28;6.90;;;6.30;;
47882;SDS011;37739;50.350;7.578;2023-06-22T05:12:53;7.73;;;7.13;;
47882;SDS011;37739;50.350;7.578;2023-06-22T05:15:18;7.47;;;6.97;;
47882;SDS011;37739;50.350;7.578;2023-06-22T05:17:47;7.53;;;6.83;;
47882;SDS011;37739;50.350;7.578;2023-06-22T05:20:12;7.73;;;7.10;;
47882;SDS011;37739;50.350;7.578;2023-06-22T05:22:40;8.23;;;7.63;;
47882;SDS011;37739;50.350;7.578;2023-06-22T05:25:11;7.23;;;6.67;;
47882;SDS011;37739;50.350;7.578;2023-06-22T05:27:38;7.03;;;6.47;;
47882;SDS011;37739;50.350;7.578;2023-06-22T05:30:12;7.00;;;6.50;;
47882;SDS011;37739;50.350;7.578;2023-06-22T05:32:40;7.87;;;7.13;;
47882;SDS011;37739;50.350;7.578;2023-06-22T05:35:11;6.43;;;5.93;;
47882;SDS011;37739;50.350;7.578;2023-06-22T05:37:45;7.40;;;6.80;;
47882;SDS011;37739;50.350;7.578;2023-06-22T05:40:10;7.47;;;6.80;;
47882;SDS011;37739;50.350;7.578;2023-06-22T05:42:36;6.00;;;5.60;;
47882;SDS011;37739;50.350;7.578;2023-06-22T05:45:02;6.70;;;6.20;;
47882;SDS011;37739;50.350;7.578;2023-06-22T05:47:27;6.70;;;6.20;;
47882;SDS011;37739;50.350;7.578;2023-06-22T05:49:55;7.03;;;6.53;;
47882;SDS011;37739;50.350;7.578;2023-06-22T05:52:20;6.30;;;5.80;;
47882;SDS011;37739;50.350;7.578;2023-06-22T05:54:45;6.47;;;5.97;;
47882;SDS011;37739;50.350;7.578;2023-06-22T05:57:13;6.90;;;6.40;;
47882;SDS011;37739;50.350;7.578;2023-06-22T05:59:46;6.57;;;6.07;;
47882;SDS011;37739;50.350;7.578;2023-06-22T06:02:12;6.70;;;6.20;;
47882;SDS011;37739;50.350;7.578;2023-06-22T06:04:44;6.87;;;6.37;;
47882;SDS011;37739;50.350;7.578;2023-06-22T06:07:21;6.90;;;6.40;;
47882;SDS011;37739;50.350;7.578;2023-06-22T06:09:46;6.30;;;5.87;;
47882;SDS011;37739;50.350;7.578;2023-06-22T06:12:15;7.47;;;6.87;;
47882;SDS011;37739;50.350;7.578;2023-06-22T06:14:41;7.50;;;6.90;;
47882;SDS011;37739;50.350;7.578;2023-06-22T06:17:06;6.80;;;6.30;;
47882;SDS011;37739;50.350;7.578;2023-06-22T06:19:33;6.80;;;6.30;;
47882;SDS011;37739;50.350;7.578;2023-06-22T06:21:59;6.93;;;6.43;;
47882;SDS011;37739;50.350;7.578;2023-06-22T06:24:25;6.60;;;6.10;;
47882;SDS011;37739;50.350;7.578;2023-06-22T06:26:50;6.40;;;5.90;;
47882;SDS011;37739;50.350;7.578;2023-06-22T06:29:25;6.43;;;5.93;;
47882;SDS011;37739;50.350;7.578;2023-06-22T06:31:55;7.37;;;6.73;;
47882;SDS011;37739;50.350;7.578;2023-06-22T06:34:21;6.50;;;6.00;;
47882;SDS011;37739;50.350;7.578;2023-06-22T06:36:55;7.40;;;6.80;;
47882;SDS011;37739;50.350;7.578;2023-06-22T06:39:30;7.80;;;7.10;;
47882;SDS011;37739;50.350;7.578;2023-06-22T06:42:10;7.67;;;6.90;;
47882;SDS011;37739;50.350;7.578;2023-06-22T06:44:39;7.87;;;7.17;;
47882;SDS011;37739;50.350;7.578;2023-06-22T06:47:07;7.10;;;6.50;;
47882;SDS011;37739;50.350;7.578;2023-06-22T06:49:55;6.97;;;6.47;;
47882;SDS011;37739;50.350;7.578;2023-06-22T06:55:18;7.80;;;7.20;;
47882;SDS011;37739;50.350;7.578;2023-06-22T06:57:44;7.37;;;6.87;;
47882;SDS011;37739;50.350;7.578;2023-06-22T07:00:38;6.10;;;5.70;;
47882;SDS011;37739;50.350;7.578;2023-06-22T07:03:10;6.50;;;6.00;;
47882;SDS011;37739;50.350;7.578;2023-06-22T07:05:35;6.60;;;6.17;;
47882;SDS011;37739;50.350;7.578;2023-06-22T07:08:01;5.87;;;5.47;;
47882;SDS011;37739;50.350;7.578;2023-06-22T07:10:45;6.33;;;5.83;;
47882;SDS011;37739;50.350;7.578;2023-06-22T07:13:10;6.80;;;6.30;;
47882;SDS011;37739;50.350;7.578;2023-06-22T07:15:37;7.07;;;6.57;;
47882;SDS011;37739;50.350;7.578;2023-06-22T07:18:15;6.87;;;6.17;;
47882;SDS011;37739;50.350;7.578;2023-06-22T07:20:40;6.47;;;6.07;;
47882;SDS011;37739;50.350;7.578;2023-06-22T07:26:31;6.73;;;6.23;;
47882;SDS011;37739;50.350;7.578;2023-06-22T07:28:59;7.70;;;7.00;;
47882;SDS011;37739;50.350;7.578;2023-06-22T07:31:37;8.17;;;7.60;;
47882;SDS011;37739;50.350;7.578;2023-06-22T07:34:10;6.97;;;6.47;;
47882;SDS011;37739;50.350;7.578;2023-06-22T07:39:27;7.47;;;6.87;;
47882;SDS011;37739;50.350;7.578;2023-06-22T07:41:53;7.20;;;6.70;;
47882;SDS011;37739;50.350;7.578;2023-06-22T07:44:28;6.10;;;5.70;;
47882;SDS011;37739;50.350;7.578;2023-06-22T07:46:59;7.30;;;6.80;;
47882;SDS011;37739;50.350;7.578;2023-06-22T07:49:31;7.00;;;6.40;;
47882;SDS011;37739;50.350;7.578;2023-06-22T07:51:59;6.70;;;6.20;;
47882;SDS011;37739;50.350;7.578;2023-06-22T07:54:31;7.30;;;6.80;;
47882;SDS011;37739;50.350;7.578;2023-06-22T08:00:14;7.87;;;7.27;;
47882;SDS011;37739;50.350;7.578;2023-06-22T08:02:44;6.57;;;6.07;;
47882;SDS011;37739;50.350;7.578;2023-06-22T08:05:18;6.10;;;5.70;;
47882;SDS011;37739;50.350;7.578;2023-06-22T08:07:49;7.60;;;6.97;;
47882;SDS011;37739;50.350;7.578;2023-06-22T08:10:21;7.30;;;6.70;;
47882;SDS011;37739;50.350;7.578;2023-06-22T08:13:06;7.07;;;6.57;;
47882;SDS011;37739;50.350;7.578;2023-06-22T08:15:34;8.47;;;7.77;;
47882;SDS011;37739;50.350;7.578;2023-06-22T08:18:06;8.50;;;7.90;;
47882;SDS011;37739;50.350;7.578;2023-06-22T08:20:31;7.47;;;6.77;;
47882;SDS011;37739;50.350;7.578;2023-06-22T08:22:57;7.90;;;7.30;;
47882;SDS011;37739;50.350;7.578;2023-06-22T08:25:25;8.17;;;7.57;;
47882;SDS011;37739;50.350;7.578;2023-06-22T08:30:59;7.70;;;7.20;;
47882;SDS011;37739;50.350;7.578;2023-06-22T08:33:29;7.70;;;7.10;;
47882;SDS011;37739;50.350;7.578;2023-06-22T08:35:58;7.83;;;7.30;;
47882;SDS011;37739;50.350;7.578;2023-06-22T08:38:29;7.57;;;6.97;;
47882;SDS011;37739;50.350;7.578;2023-06-22T08:40:54;8.10;;;7.50;;
47882;SDS011;37739;50.350;7.578;2023-06-22T08:43:20;7.50;;;6.90;;
47882;SDS011;37739;50.350;7.578;2023-06-22T08:45:48;7.57;;;7.07;;
47882;SDS011;37739;50.350;7.578;2023-06-22T08:48:17;7.93;;;7.33;;
47882;SDS011;37739;50.350;7.578;2023-06-22T08:50:42;8.40;;;7.67;;
47882;SDS011;37739;50.350;7.578;2023-06-22T08:53:07;7.63;;;7.03;;
47882;SDS011;37739;50.350;7.578;2023-06-22T08:56:02;8.60;;;7.93;;
47882;SDS011;37739;50.350;7.578;2023-06-22T08:58:37;8.57;;;7.77;;
47882;SDS011;37739;50.350;7.578;2023-06-22T09:04:27;9.03;;;8.30;;
47882;SDS011;37739;50.350;7.578;2023-06-22T09:07:02;9.10;;;8.33;;
47882;SDS011;37739;50.350;7.578;2023-06-22T09:09:35;8.03;;;7.43;;
47882;SDS011;37739;50.350;7.578;2023-06-22T09:12:05;7.43;;;6.83;;
47882;SDS011;37739;50.350;7.578;2023-06-22T09:20:13;8.10;;;7.60;;
47882;SDS011;37739;50.350;7.578;2023-06-22T09:22:43;8.93;;;8.20;;
47882;SDS011;37739;50.350;7.578;2023-06-22T09:25:13;8.00;;;7.40;;
47882;SDS011;37739;50.350;7.578;2023-06-22T09:27:39;7.83;;;7.13;;
47882;SDS011;37739;50.350;7.578;2023-06-22T09:30:06;8.17;;;7.57;;
47882;SDS011;37739;50.350;7.578;2023-06-22T09:32:34;8.33;;;7.63;;
47882;SDS011;37739;50.350;7.578;2023-06-22T09:35:03;7.97;;;7.33;;
47882;SDS011;37739;50.350;7.578;2023-06-22T09:37:30;7.30;;;6.80;;
47882;SDS011;37739;50.350;7.578;2023-06-22T09:39:58;7.23;;;6.73;;
47882;SDS011;37739;50.350;7.578;2023-06-22T09:42:23;7.73;;;7.10;;
47882;SDS011;37739;50.350;7.578;2023-06-22T09:44:51;7.97;;;7.30;;
47882;SDS011;37739;50.350;7.578;2023-06-22T09:47:18;8.63;;;8.03;;
47882;SDS011;37739;50.350;7.578;2023-06-22T09:49:46;7.77;;;7.17;;
47882;SDS011;37739;50.350;7.578;2023-06-22T09:52:11;7.50;;;6.90;;
47882;SDS011;37739;50.350;7.578;2023-06-22T09:54:39;8.80;;;8.20;;
47882;SDS011;37739;50.350;7.578;2023-06-22T09:57:04;8.13;;;7.53;;
47882;SDS011;37739;50.350;7.578;2023-06-22T09:59:29;8.20;;;7.50;;
47882;SDS011;37739;50.350;7.578;2023-06-22T10:01:57;9.20;;;8.57;;
47882;SDS011;37739;50.350;7.578;2023-06-22T10:04:23;8.03;;;7.40;;
47882;SDS011;37739;50.350;7.578;2023-06-22T10:06:49;8.80;;;8.03;;
47882;SDS011;37739;50.350;7.578;2023-06-22T10:09:15;8.67;;;8.03;;
47882;SDS011;37739;50.350;7.578;2023-06-22T10:11:40;8.63;;;8.03;;
47882;SDS011;37739;50.350;7.578;2023-06-22T10:14:05;9.00;;;8.30;;
47882;SDS011;37739;50.350;7.578;2023-06-22T10:16:33;8.30;;;7.70;;
47882;SDS011;37739;50.350;7.578;2023-06-22T10:19:00;7.83;;;7.13;;
47882;SDS011;37739;50.350;7.578;2023-06-22T10:21:28;8.60;;;8.00;;
47882;SDS011;37739;50.350;7.578;2023-06-22T10:23:56;7.87;;;7.27;;
47882;SDS011;37739;50.350;7.578;2023-06-22T10:26:21;7.80;;;7.20;;
47882;SDS011;37739;50.350;7.578;2023-06-22T10:28:53;8.17;;;7.57;;
47882;SDS011;37739;50.350;7.578;2023-06-22T10:31:19;7.63;;;7.03;;
47882;SDS011;37739;50.350;7.578;2023-06-22T10:33:47;8.57;;;7.97;;
47882;SDS011;37739;50.350;7.578;2023-06-22T10:36:16;7.17;;;6.67;;
47882;SDS011;37739;50.350;7.578;2023-06-22T10:38:44;7.40;;;6.90;;
47882;SDS011;37739;50.350;7.578;2023-06-22T10:41:12;7.80;;;7.30;;
47882;SDS011;37739;50.350;7.578;2023-06-22T10:43:37;7.40;;;6.80;;
47882;SDS011;37739;50.350;7.578;2023-06-22T10:46:07;8.87;;;8.17;;
47882;SDS011;37739;50.350;7.578;2023-06-22T10:48:35;8.80;;;8.10;;
47882;SDS011;37739;50.350;7.578;2023-06-22T10:51:00;7.80;;;7.30;;
47882;SDS011;37739;50.350;7.578;2023-06-22T10:53:27;8.10;;;7.50;;
47882;SDS011;37739;50.350;7.578;2023-06-22T10:55:57;10.57;;;9.67;;
47882;SDS011;37739;50.350;7.578;2023-06-22T10:58:22;8.27;;;7.57;;
47882;SDS011;37739;50.350;7.578;2023-06-22T11:00:48;8.90;;;8.23;;
47882;SDS011;37739;50.350;7.578;2023-06-22T11:03:13;7.13;;;6.63;;
47882;SDS011;37739;50.350;7.578;2023-06-22T11:05:41;8.90;;;8.30;;
47882;SDS011;37739;50.350;7.578;2023-06-22T11:08:06;7.13;;;6.63;;
47882;SDS011;37739;50.350;7.578;2023-06-22T11:10:32;9.50;;;8.80;;
47882;SDS011;37739;50.350;7.578;2023-06-22T11:12:57;8.07;;;7.30;;
47882;SDS011;37739;50.350;7.578;2023-06-22T11:15:31;7.90;;;7.40;;
47882;SDS011;37739;50.350;7.578;2023-06-22T11:17:56;7.97;;;7.37;;
47882;SDS011;37739;50.350;7.578;2023-06-22T11:20:22;9.07;;;8.37;;
47882;SDS011;37739;50.350;7.578;2023-06-22T11:22:49;9.50;;;8.80;;
47882;SDS011;37739;50.350;7.578;2023-06-22T11:25:14;9.50;;;8.80;;
47882;SDS011;37739;50.350;7.578;2023-06-22T11:27:42;8.70;;;8.03;;
47882;SDS011;37739;50.350;7.578;2023-06-22T11:30:09;9.47;;;8.67;;
47882;SDS011;37739;50.350;7.578;2023-06-22T11:32:35;8.43;;;7.93;;
47882;SDS011;37739;50.350;7.578;2023-06-22T11:35:03;8.40;;;7.80;;
47882;SDS011;37739;50.350;7.578;2023-06-22T11:37:30;8.10;;;7.40;;
47882;SDS011;37739;50.350;7.578;2023-06-22T11:39:56;8.50;;;7.80;;
47882;SDS011;37739;50.350;7.578;2023-06-22T11:42:21;8.60;;;8.00;;
47882;SDS011;37739;50.350;7.578;2023-06-22T11:44:48;10.10;;;9.20;;
47882;SDS011;37739;50.350;7.578;2023-06-22T11:47:16;9.60;;;8.80;;
47882;SDS011;37739;50.350;7.578;2023-06-22T11:49:44;9.63;;;8.83;;
47882;SDS011;37739;50.350;7.578;2023-06-22T11:52:10;8.33;;;7.63;;
47882;SDS011;37739;50.350;7.578;2023-06-22T11:54:35;8.93;;;8.33;;
47882;SDS011;37739;50.350;7.578;2023-06-22T11:57:01;8.30;;;7.70;;
47882;SDS011;37739;50.350;7.578;2023-06-22T11:59:26;8.03;;;7.43;;
47882;SDS011;37739;50.350;7.578;2023-06-22T12:01:57;8.40;;;7.60;;
47882;SDS011;37739;50.350;7.578;2023-06-22T12:04:24;8.87;;;8.17;;
47882;SDS011;37739;50.350;7.578;2023-06-22T12:06:50;9.90;;;9.00;;
47882;SDS011;37739;50.350;7.578;2023-06-22T12:09:15;8.20;;;7.53;;
47882;SDS011;37739;50.350;7.578;2023-06-22T12:11:43;8.43;;;7.83;;
47882;SDS011;37739;50.350;7.578;2023-06-22T12:14:08;8.60;;;7.83;;
47882;SDS011;37739;50.350;7.578;2023-06-22T12:16:33;8.27;;;7.60;;
47882;SDS011;37739;50.350;7.578;2023-06-22T12:18:59;8.23;;;7.70;;
47882;SDS011;37739;50.350;7.578;2023-06-22T12:21:26;7.83;;;7.23;;
47882;SDS011;37739;50.350;7.578;2023-06-22T12:23:54;8.50;;;7.90;;
47882;SDS011;37739;50.350;7.578;2023-06-22T12:26:19;8.73;;;8.03;;
47882;SDS011;37739;50.350;7.578;2023-06-22T12:28:45;8.00;;;7.40;;
47882;SDS011;37739;50.350;7.578;2023-06-22T12:31:12;8.10;;;7.50;;
47882;SDS011;37739;50.350;7.578;2023-06-22T12:33:41;8.17;;;7.53;;
47882;SDS011;37739;50.350;7.578;2023-06-22T12:36:07;8.20;;;7.60;;
47882;SDS011;37739;50.350;7.578;2023-06-22T12:38:36;8.50;;;7.93;;
47882;SDS011;37739;50.350;7.578;2023-06-22T12:41:04;8.83;;;8.23;;
47882;SDS011;37739;50.350;7.578;2023-06-22T12:43:29;7.70;;;7.00;;
47882;SDS011;37739;50.350;7.578;2023-06-22T12:45:57;8.40;;;7.70;;
47882;SDS011;37739;50.350;7.578;2023-06-22T12:48:22;8.10;;;7.50;;
47882;SDS011;37739;50.350;7.578;2023-06-22T12:50:51;9.50;;;8.80;;
47882;SDS011;37739;50.350;7.578;2023-06-22T12:53:16;8.10;;;7.40;;
47882;SDS011;37739;50.350;7.578;2023-06-22T12:55:41;7.40;;;6.80;;
47882;SDS011;37739;50.350;7.578;2023-06-22T12:58:07;7.97;;;7.37;;
47882;SDS011;37739;50.350;7.578;2023-06-22T13:00:34;8.30;;;7.70;;
47882;SDS011;37739;50.350;7.578;2023-06-22T13:02:59;8.40;;;7.80;;
47882;SDS011;37739;50.350;7.578;2023-06-22T13:05:27;8.40;;;7.80;;
47882;SDS011;37739;50.350;7.578;2023-06-22T13:07:54;8.03;;;7.43;;
47882;SDS011;37739;50.350;7.578;2023-06-22T13:10:20;7.57;;;6.90;;
47882;SDS011;37739;50.350;7.578;2023-06-22T13:12:45;7.60;;;7.00;;
47882;SDS011;37739;50.350;7.578;2023-06-22T13:15:10;7.03;;;6.60;;
47882;SDS011;37739;50.350;7.578;2023-06-22T13:17:36;8.20;;;7.67;;
47882;SDS011;37739;50.350;7.578;2023-06-22T13:20:04;7.10;;;6.60;;
47882;SDS011;37739;50.350;7.578;2023-06-22T13:22:31;7.60;;;7.10;;
47882;SDS011;37739;50.350;7.578;2023-06-22T13:24:58;7.77;;;7.27;;
47882;SDS011;37739;50.350;7.578;2023-06-22T13:27:27;9.07;;;8.30;;
47882;SDS011;37739;50.350;7.578;2023-06-22T13:29:52;8.00;;;7.17;;
47882;SDS011;37739;50.350;7.578;2023-06-22T13:32:18;8.30;;;7.60;;
47882;SDS011;37739;50.350;7.578;2023-06-22T13:34:45;7.47;;;6.90;;
47882;SDS011;37739;50.350;7.578;2023-06-22T13:37:11;7.37;;;6.77;;
47882;SDS011;37739;50.350;7.578;2023-06-22T13:39:38;6.50;;;6.10;;
47882;SDS011;37739;50.350;7.578;2023-06-22T13:42:04;7.33;;;6.80;;
47882;SDS011;37739;50.350;7.578;2023-06-22T13:44:31;7.87;;;7.27;;
47882;SDS011;37739;50.350;7.578;2023-06-22T13:46:57;8.00;;;7.40;;
47882;SDS011;37739;50.350;7.578;2023-06-22T13:49:25;7.30;;;6.70;;
47882;SDS011;37739;50.350;7.578;2023-06-22T13:51:51;7.90;;;7.20;;
47882;SDS011;37739;50.350;7.578;2023-06-22T13:54:16;8.20;;;7.60;;
47882;SDS011;37739;50.350;7.578;2023-06-22T13:56:47;7.57;;;6.93;;
47882;SDS011;37739;50.350;7.578;2023-06-22T13:59:12;7.50;;;6.90;;
47882;SDS011;37739;50.350;7.578;2023-06-22T14:01:38;6.87;;;6.37;;
47882;SDS011;37739;50.350;7.578;2023-06-22T14:04:06;7.03;;;6.43;;
47882;SDS011;37739;50.350;7.578;2023-06-22T14:06:34;6.60;;;6.10;;
47882;SDS011;37739;50.350;7.578;2023-06-22T14:08:59;6.73;;;5.67;;
47882;SDS011;37739;50.350;7.578;2023-06-22T14:11:27;6.67;;;6.13;;
47882;SDS011;37739;50.350;7.578;2023-06-22T14:13:57;6.60;;;6.07;;
47882;SDS011;37739;50.350;7.578;2023-06-22T14:16:24;6.20;;;5.80;;
47882;SDS011;37739;50.350;7.578;2023-06-22T14:18:50;7.97;;;7.37;;
47882;SDS011;37739;50.350;7.578;2023-06-22T14:21:15;7.57;;;5.30;;
47882;SDS011;37739;50.350;7.578;2023-06-22T14:23:41;7.90;;;4.70;;
47882;SDS011;37739;50.350;7.578;2023-06-22T14:26:06;8.83;;;4.63;;
47882;SDS011;37739;50.350;7.578;2023-06-22T14:28:34;3.93;;;3.20;;
47882;SDS011;37739;50.350;7.578;2023-06-22T14:30:59;6.67;;;5.13;;
47882;SDS011;37739;50.350;7.578;2023-06-22T14:33:26;5.27;;;4.17;;
47882;SDS011;37739;50.350;7.578;2023-06-22T14:35:52;5.00;;;2.87;;
47882;SDS011;37739;50.350;7.578;2023-06-22T14:38:22;4.77;;;2.57;;
47882;SDS011;37739;50.350;7.578;2023-06-22T14:40:48;4.83;;;2.43;;
47882;SDS011;37739;50.350;7.578;2023-06-22T14:43:15;5.93;;;3.10;;
47882;SDS011;37739;50.350;7.578;2023-06-22T14:45:41;5.70;;;3.40;;
47882;SDS011;37739;50.350;7.578;2023-06-22T14:48:08;5.80;;;3.00;;
47882;SDS011;37739;50.350;7.578;2023-06-22T14:50:34;4.63;;;3.03;;
47882;SDS011;37739;50.350;7.578;2023-06-22T14:53:01;2.93;;;2.37;;
47882;SDS011;37739;50.350;7.578;2023-06-22T14:55:29;4.73;;;2.67;;
47882;SDS011;37739;50.350;7.578;2023-06-22T14:57:54;4.20;;;2.13;;
47882;SDS011;37739;50.350;7.578;2023-06-22T15:00:19;7.23;;;3.77;;
47882;SDS011;37739;50.350;7.578;2023-06-22T15:02:45;5.20;;;2.83;;
47882;SDS011;37739;50.350;7.578;2023-06-22T15:05:10;10.23;;;3.00;;
47882;SDS011;37739;50.350;7.578;2023-06-22T15:07:36;2.63;;;2.27;;
47882;SDS011;37739;50.350;7.578;2023-06-22T15:10:07;3.93;;;2.60;;
47882;SDS011;37739;50.350;7.578;2023-06-22T15:12:33;4.80;;;2.93;;
47882;SDS011;37739;50.350;7.578;2023-06-22T15:14:58;2.93;;;2.63;;
47882;SDS011;37739;50.350;7.578;2023-06-22T15:17:26;3.93;;;2.47;;
47882;SDS011;37739;50.350;7.578;2023-06-22T15:19:54;5.10;;;2.20;;
47882;SDS011;37739;50.350;7.578;2023-06-22T15:22:20;4.00;;;2.70;;
47882;SDS011;37739;50.350;7.578;2023-06-22T15:24:46;3.60;;;2.40;;
47882;SDS011;37739;50.350;7.578;2023-06-22T15:27:15;5.13;;;2.70;;
47882;SDS011;37739;50.350;7.578;2023-06-22T15:29:43;4.37;;;3.17;;
47882;SDS011;37739;50.350;7.578;2023-06-22T15:32:08;5.10;;;3.20;;
47882;SDS011;37739;50.350;7.578;2023-06-22T15:34:33;3.80;;;2.70;;
47882;SDS011;37739;50.350;7.578;2023-06-22T15:37:01;5.50;;;2.80;;
47882;SDS011;37739;50.350;7.578;2023-06-22T15:39:28;4.87;;;3.03;;
47882;SDS011;37739;50.350;7.578;2023-06-22T15:41:54;3.53;;;2.43;;